tititudorancea.com
Station Historical Data
Daily Summary for May 14, 2018 Units:  Metric    English   Both
« Previous Day
Next Day »
Daily Weekly Monthly Yearly Custom
  High: Low: Average:
Temperature: -17.8 °C 6.4 °C 9.6 °C
Dew Point: -17.8 °C 5.7 °C 7.6 °C
Humidity: Humidity % 69 % 87 %
Wind Speed: 0 km/h 0 km/h 5.6 km/h
Wind Gust: 0 km/h - -
Wind:- - SSW
Pressure: 0 hPa 1025.3 hPa -
Precipitation: 0.25 mm    
Historical Graphs
 
 
Ararat weather Find more about Weather in Ararat, AU


 



 


Tabular Data for May 14, 2018
Time Temperature Dew Point Pressure Wind Wind Speed Wind Gust Humidity Rainfall Rate (Hourly)
-17.8 °C -17.8 °C 0 hPa Calm     Humidity % 0 mm
00:02 9.4 °C 8.6 °C 1029 hPa North 8.4 km/h 14.8 km/h 95 % 0 mm
00:03 9.4 °C 8.6 °C 1029 hPa SSE 8 km/h 14.8 km/h 95 % 0 mm
00:08 9.4 °C 8.6 °C 1029 hPa SSE 9.2 km/h 18.5 km/h 95 % 0 mm
00:09 9.4 °C 8.6 °C 1029 hPa SSE 14.8 km/h 24.1 km/h 95 % 0 mm
00:14 9.3 °C 8.5 °C 1029 hPa SSE 10.6 km/h 18.5 km/h 95 % 0 mm
00:19 9.2 °C 8.4 °C 1029 hPa SSE 6.4 km/h 9.3 km/h 95 % 0 mm
00:24 9 °C 8.2 °C 1029 hPa SSE 7.7 km/h 13 km/h 95 % 0 mm
00:29 8.9 °C 8.1 °C 1029 hPa North 6.8 km/h 9.3 km/h 95 % 0 mm
00:34 8.8 °C 8 °C 1029 hPa SSE 6.4 km/h 9.3 km/h 95 % 0 mm
00:39 8.7 °C 7.9 °C 1029 hPa SSE 7.9 km/h 9.7 km/h 95 % 0 mm
00:44 8.6 °C 7.8 °C 1028.7 hPa North 6.4 km/h 9.3 km/h 95 % 0 mm
00:49 8.6 °C 7.8 °C 1028.7 hPa SSE 8 km/h 11.1 km/h 95 % 0 mm
00:54 8.6 °C 7.8 °C 1028.7 hPa SSE 6.9 km/h 9.3 km/h 95 % 0 mm
00:59 8.6 °C 7.8 °C 1028.7 hPa SSE 6.1 km/h 9.3 km/h 95 % 0 mm
01:04 8.6 °C 7.8 °C 1028.7 hPa SSE 4 km/h 7.4 km/h 95 % 0 mm
01:09 8.7 °C 7.9 °C 1028.7 hPa North 4.7 km/h 5.6 km/h 95 % 0 mm
01:10 8.6 °C 7.8 °C 1028.7 hPa North 3.9 km/h 7.4 km/h 95 % 0 mm
01:15 8.6 °C 7.8 °C 1028.7 hPa North 8 km/h 13 km/h 95 % 0 mm
01:18 8.6 °C 7.8 °C 1028.7 hPa North 5.1 km/h 7.4 km/h 95 % 0 mm
01:23 8.5 °C 7.7 °C 1028.7 hPa SSE 7.9 km/h 11.3 km/h 95 % 0 mm
01:28 8.5 °C 7.7 °C 1028.7 hPa North 5.3 km/h 11.3 km/h 95 % 0 mm
01:33 8.4 °C 7.7 °C 1028.7 hPa SSE 7.9 km/h 11.1 km/h 95 % 0 mm
01:38 8.4 °C 7.6 °C 1028.7 hPa North 6.9 km/h 9.3 km/h 95 % 0 mm
01:43 8.3 °C 7.5 °C 1028.7 hPa SSE 6.3 km/h 8 km/h 95 % 0 mm
01:48 8.2 °C 7.4 °C 1028.7 hPa North 7.4 km/h 9.3 km/h 95 % 0 mm
01:53 8 °C 7.2 °C 1028.7 hPa SSE 5.5 km/h 7.4 km/h 95 % 0 mm
01:58 7.9 °C 7.1 °C 1028.3 hPa North 10.3 km/h 13 km/h 95 % 0 mm
02:03 7.8 °C 7.2 °C 1028.3 hPa North 4.2 km/h 7.4 km/h 96 % 0 mm
02:08 7.8 °C 7.2 °C 1028.3 hPa North 6.3 km/h 9.3 km/h 96 % 0 mm
02:13 7.7 °C 6.9 °C 1028.3 hPa North 4.5 km/h 7.4 km/h 95 % 0 mm
02:18 7.7 °C 7.1 °C 1028.3 hPa North 4.8 km/h 9.3 km/h 96 % 0 mm
02:23 7.6 °C 6.9 °C 1028.3 hPa SSE 4.7 km/h 5.6 km/h 95 % 0 mm
02:28 7.5 °C 6.9 °C 1028.3 hPa North 2.1 km/h 5.6 km/h 96 % 0 mm
02:33 7.4 °C 6.8 °C 1028.3 hPa SSE 9.2 km/h 13 km/h 96 % 0 mm
02:38 7.4 °C 6.8 °C 1028.3 hPa North 9.8 km/h 9.8 km/h 96 % 0 mm
02:43 7.3 °C 6.7 °C 1028.3 hPa SSE 6 km/h 12.9 km/h 96 % 0 mm
02:48 7.3 °C 6.7 °C 1028.3 hPa SSE 6.1 km/h 8 km/h 96 % 0 mm
02:53 7.3 °C 6.7 °C 1028.3 hPa SSE 5 km/h 11.1 km/h 96 % 0 mm
02:58 7.3 °C 6.7 °C 1028 hPa SSE 3.7 km/h 5.6 km/h 96 % 0 mm
03:03 7.4 °C 6.8 °C 1028 hPa North 5.1 km/h 9.3 km/h 96 % 0 mm
03:08 7.4 °C 6.8 °C 1028 hPa North 3.9 km/h 9.3 km/h 96 % 0 mm
03:13 7.4 °C 6.8 °C 1028 hPa SSE 4.3 km/h 9.3 km/h 96 % 0 mm
03:18 7.4 °C 6.8 °C 1027.7 hPa North 9.3 km/h 11.3 km/h 96 % 0 mm
03:23 7.5 °C 6.9 °C 1027.7 hPa SSE 8.4 km/h 11.1 km/h 96 % 0 mm
03:28 7.6 °C 6.9 °C 1027.7 hPa North 4.8 km/h 14.8 km/h 96 % 0 mm
03:33 7.6 °C 6.9 °C 1027.7 hPa North 3.1 km/h 9.3 km/h 96 % 0 mm
03:38 7.7 °C 7.1 °C 1027.7 hPa SSE 6.8 km/h 9.7 km/h 96 % 0 mm
03:43 7.7 °C 7.1 °C 1027.7 hPa SSE 7.2 km/h 9.3 km/h 96 % 0 mm
03:48 7.8 °C 7.2 °C 1027.7 hPa SSE 9.2 km/h 13 km/h 96 % 0 mm
03:53 7.8 °C 7.2 °C 1027.7 hPa North 3.2 km/h 9.3 km/h 96 % 0 mm
03:58 7.9 °C 7.3 °C 1027.7 hPa SSE 7.1 km/h 11.3 km/h 96 % 0 mm
04:03 7.9 °C 7.3 °C 1027.3 hPa North 10.1 km/h 11.3 km/h 96 % 0 mm
04:09 7.9 °C 7.3 °C 1027.3 hPa SSE 7.4 km/h 11.1 km/h 96 % 0 mm
04:14 7.8 °C 7.2 °C 1027.3 hPa North 8.2 km/h 11.1 km/h 96 % 0 mm
04:18 7.8 °C 7.2 °C 1027.3 hPa North 4 km/h 9.3 km/h 96 % 0 mm
04:24 7.7 °C 7.1 °C 1027.3 hPa SSE 9 km/h 9.7 km/h 96 % 0 mm
04:29 7.7 °C 7.1 °C 1027.3 hPa SSE 6.3 km/h 8 km/h 96 % 0 mm
04:34 7.7 °C 7.1 °C 1027.3 hPa North 6.8 km/h 9.3 km/h 96 % 0 mm
04:38 7.8 °C 7.2 °C 1027.3 hPa SSE 5 km/h 7.4 km/h 96 % 0 mm
04:43 7.7 °C 7.1 °C 1027.7 hPa SSE 6.3 km/h 7.4 km/h 96 % 0 mm
04:48 7.7 °C 7.1 °C 1027.7 hPa North 6.3 km/h 9.3 km/h 96 % 0 mm
04:54 7.7 °C 6.9 °C 1027.3 hPa SSE 7.7 km/h 9.3 km/h 95 % 0 mm
04:59 7.7 °C 7.1 °C 1027.7 hPa SSE 8 km/h 9.7 km/h 96 % 0 mm
05:04 7.7 °C 7.1 °C 1027.7 hPa North 6.9 km/h 9.3 km/h 96 % 0 mm
05:09 7.7 °C 7.1 °C 1027.7 hPa SSE 8.9 km/h 13 km/h 96 % 0 mm
05:14 7.8 °C 7.2 °C 1027.7 hPa North 7.4 km/h 9.3 km/h 96 % 0 mm
05:19 7.8 °C 7 °C 1027.7 hPa SSE 8.7 km/h 9.7 km/h 95 % 0 mm
05:24 7.8 °C 7.1 °C 1027.7 hPa SSE 6.6 km/h 8 km/h 95 % 0 mm
05:29 7.8 °C 7.1 °C 1027.7 hPa North 7.4 km/h 11.1 km/h 95 % 0 mm
05:34 7.8 °C 7.1 °C 1027.7 hPa North 6.1 km/h 8 km/h 95 % 0 mm
05:39 7.8 °C 7 °C 1028 hPa SSE 4.5 km/h 4.5 km/h 95 % 0 mm
05:44 7.7 °C 6.9 °C 1028 hPa SSE 2.9 km/h 5.6 km/h 95 % 0 mm
05:49 7.4 °C 6.5 °C 1028 hPa SSE 5.5 km/h 13 km/h 94 % 0 mm
05:54 7.1 °C 6.2 °C 1028 hPa North 1.6 km/h 7.4 km/h 94 % 0 mm
05:56 6.9 °C 6.1 °C 1028 hPa SSE 2.3 km/h 5.6 km/h 94 % 0 mm
06:01 6.7 °C 5.8 °C 1028 hPa Calm   3.7 km/h 94 % 0 mm
06:06 6.6 °C 5.7 °C 1028 hPa SSE 1.8 km/h 3.7 km/h 94 % 0 mm
06:11 6.4 °C 5.7 °C 1028 hPa SSE 0.5 km/h 3.7 km/h 95 % 0 mm
06:16 6.4 °C 5.7 °C 1028 hPa Calm   1.9 km/h 95 % 0 mm
06:21 6.4 °C 5.7 °C 1028 hPa Calm     95 % 0 mm
06:26 6.4 °C 5.7 °C 1028 hPa SSE 1.9 km/h 3.7 km/h 95 % 0 mm
06:31 6.5 °C 5.8 °C 1028 hPa North 1.6 km/h 3.7 km/h 95 % 0 mm
06:36 6.6 °C 5.8 °C 1028 hPa North 5.6 km/h 6.4 km/h 95 % 0 mm
06:41 6.7 °C 5.9 °C 1028 hPa SSE 3.7 km/h 5.6 km/h 95 % 0 mm
06:46 6.7 °C 6 °C 1028 hPa SSE 0.5 km/h 3.2 km/h 95 % 0 mm
06:51 6.8 °C 6.1 °C 1028 hPa SSE 3.1 km/h 7.4 km/h 95 % 0 mm
06:56 6.9 °C 6.2 °C 1028.3 hPa SSE 2.9 km/h 3.7 km/h 95 % 0 mm
07:01 6.9 °C 6.2 °C 1028.3 hPa North 2.7 km/h 3.7 km/h 95 % 0 mm
07:06 6.9 °C 6.2 °C 1028.3 hPa Calm   3.7 km/h 95 % 0 mm
07:11 6.9 °C 6.2 °C 1028.3 hPa Calm     95 % 0 mm
07:16 6.7 °C 6 °C 1028.3 hPa North 0.8 km/h 1.9 km/h 95 % 0 mm
07:21 6.6 °C 5.9 °C 1028.3 hPa SSE 0.2 km/h 1.6 km/h 95 % 0 mm
07:26 6.6 °C 5.8 °C 1028.3 hPa SSE 0.5 km/h 1.9 km/h 95 % 0 mm
07:31 6.5 °C 5.8 °C 1028.3 hPa Calm   3.7 km/h 95 % 0 mm
07:36 6.5 °C 5.8 °C 1028.3 hPa SSE 0.3 km/h   95 % 0 mm
07:41 6.4 °C 5.7 °C 1028.7 hPa North 1.3 km/h 1.9 km/h 95 % 0.25 mm
07:46 6.4 °C 5.7 °C 1028.7 hPa SSE 0.3 km/h 3.7 km/h 95 % 0.25 mm
07:51 6.4 °C 5.7 °C 1028.7 hPa Calm     95 % 0.25 mm
07:56 6.4 °C 5.7 °C 1028.7 hPa SSE 0.3 km/h 5.6 km/h 95 % 0.25 mm
08:01 6.5 °C 5.8 °C 1028.7 hPa SSE 1.4 km/h 5.6 km/h 95 % 0.25 mm
08:06 6.6 °C 6 °C 1028.7 hPa North 3.9 km/h 5.6 km/h 96 % 0.25 mm
08:11 6.8 °C 6.2 °C 1028.7 hPa SSE 2.3 km/h 5.6 km/h 96 % 0.25 mm
08:16 7.1 °C 6.4 °C 1028.7 hPa Calm     96 % 0.25 mm
08:21 7.2 °C 6.6 °C 1029 hPa SSE 2.9 km/h 3.7 km/h 96 % 0.25 mm
08:26 7.3 °C 6.7 °C 1028.7 hPa SSE 3.1 km/h 5.6 km/h 96 % 0.25 mm
08:31 7.5 °C 6.9 °C 1028.7 hPa SSE 2.7 km/h 8 km/h 96 % 0.25 mm
08:36 7.7 °C 7.1 °C 1029 hPa SSE 5 km/h 8 km/h 96 % 0 mm
08:41 7.8 °C 7.2 °C 1029 hPa SSE 7.2 km/h 8 km/h 96 % 0 mm
08:46 7.8 °C 7.2 °C 1029 hPa SSE 3.5 km/h 7.4 km/h 96 % 0 mm
08:51 7.8 °C 7.2 °C 1029 hPa SSE 7.2 km/h 11.1 km/h 96 % 0 mm
08:56 7.8 °C 7.2 °C 1029 hPa SSE 6.3 km/h 7.4 km/h 96 % 0 mm
09:01 7.7 °C 7.1 °C 1029 hPa SSE 4.8 km/h 7.4 km/h 96 % 0 mm
09:06 7.8 °C 7.2 °C 1029 hPa SSE 4 km/h 8 km/h 96 % 0 mm
09:11 7.9 °C 7.3 °C 1029 hPa North 0.2 km/h 1.9 km/h 96 % 0 mm
09:16 8.2 °C 7.6 °C 1029 hPa SSE 5.3 km/h 7.4 km/h 96 % 0 mm
09:19 8.2 °C 7.6 °C 1029 hPa SSE 7.7 km/h 11.1 km/h 96 % 0 mm
09:24 8.4 °C 7.8 °C 1029 hPa SSE 6.8 km/h 7.4 km/h 96 % 0 mm
09:29 8.5 °C 7.9 °C 1029 hPa SSE 3.9 km/h 11.1 km/h 96 % 0 mm
09:34 8.7 °C 8.1 °C 1029 hPa SSE 2.4 km/h 7.4 km/h 96 % 0 mm
09:39 8.9 °C 8.3 °C 1029 hPa SSE 6.6 km/h 11.1 km/h 96 % 0 mm
09:44 9 °C 8.4 °C 1029 hPa SSE 8.5 km/h 16.1 km/h 96 % 0 mm
09:49 9.1 °C 8.5 °C 1029 hPa SSE 6.4 km/h 9.7 km/h 96 % 0 mm
09:54 9.3 °C 8.7 °C 1029 hPa SSE 11.3 km/h 13 km/h 96 % 0 mm
09:59 9.4 °C 8.6 °C 1029 hPa SSE 5.3 km/h 11.1 km/h 95 % 0 mm
10:04 9.4 °C 8.7 °C 1028.7 hPa SSE 8 km/h 16.7 km/h 95 % 0 mm
10:09 9.6 °C 8.8 °C 1028.7 hPa SSE 16.4 km/h 16.4 km/h 95 % 0 mm
10:14 9.7 °C 8.8 °C 1028.7 hPa SSE 11.3 km/h 14.8 km/h 94 % 0 mm
10:19 10 °C 9.2 °C 1029 hPa SSE 6.4 km/h 8 km/h 95 % 0 mm
10:24 10.2 °C 9.2 °C 1028.7 hPa SSE 6 km/h 9.7 km/h 93 % 0 mm
10:29 10.4 °C 9.3 °C 1028.7 hPa SSE 6.1 km/h 11.1 km/h 93 % 0 mm
10:34 10.6 °C 9.3 °C 1028.7 hPa SSE 8.4 km/h 9.3 km/h 92 % 0 mm
10:39 10.7 °C 9.3 °C 1028.7 hPa SSE 11.7 km/h 16.7 km/h 91 % 0 mm
10:44 10.8 °C 9.1 °C 1028.3 hPa SSE 7.7 km/h 11.1 km/h 89 % 0 mm
10:49 10.7 °C 9 °C 1028.3 hPa SSE 4.5 km/h 11.3 km/h 89 % 0 mm
10:54 10.7 °C 9 °C 1028.3 hPa SSE 7.4 km/h 11.1 km/h 89 % 0 mm
10:59 10.7 °C 8.8 °C 1028.3 hPa SSE 9.2 km/h 11.1 km/h 88 % 0 mm
11:04 10.7 °C 8.8 °C 1028.3 hPa SSE 9.5 km/h 11.1 km/h 88 % 0 mm
11:09 10.9 °C 9.2 °C 1028 hPa SSE 6.3 km/h 11.1 km/h 89 % 0 mm
11:14 10.9 °C 9.1 °C 1028 hPa SSE 6.3 km/h 9.3 km/h 88 % 0 mm
11:19 11.2 °C 9.1 °C 1028 hPa SSE 7.1 km/h 11.1 km/h 87 % 0 mm
11:24 11.4 °C 9.3 °C 1027.7 hPa SSE 8.5 km/h 11.1 km/h 87 % 0 mm
11:29 11.7 °C 9.4 °C 1028 hPa SSE 8.9 km/h 11.1 km/h 86 % 0 mm
11:34 11.8 °C 9.3 °C 1027.7 hPa SSE 9.8 km/h 13 km/h 85 % 0 mm
11:39 11.8 °C 9.3 °C 1027.7 hPa SSE 5.8 km/h 9.3 km/h 85 % 0 mm
11:44 12.1 °C 9.6 °C 1027.7 hPa SSE 9.5 km/h 13 km/h 85 % 0 mm
11:49 12.1 °C 9.4 °C 1027.3 hPa SSE 5.6 km/h 7.4 km/h 84 % 0 mm
11:54 12.2 °C 9.4 °C 1027.3 hPa SSE 8.9 km/h 11.1 km/h 83 % 0 mm
11:59 12.2 °C 9.4 °C 1027.3 hPa SSE 6 km/h 11.1 km/h 83 % 0 mm
12:04 12.4 °C 9.6 °C 1027 hPa SSE 7.4 km/h 11.1 km/h 83 % 0 mm
12:09 12.6 °C 9.4 °C 1027 hPa SSE 7.9 km/h 11.1 km/h 81 % 0 mm
12:14 12.7 °C 9.6 °C 1027 hPa SSE 7.9 km/h 9.7 km/h 81 % 0 mm
12:19 12.8 °C 9.8 °C 1027 hPa SSE 3.5 km/h 6.4 km/h 82 % 0 mm
12:24 13.1 °C 9.5 °C 1027 hPa SSE 5.5 km/h 7.4 km/h 79 % 0 mm
12:29 13.3 °C 9.6 °C 1026.6 hPa SSE 12.1 km/h 14.8 km/h 78 % 0 mm
12:30 13.3 °C 9.6 °C 1026.6 hPa SSE 10 km/h 14.8 km/h 78 % 0 mm
12:35 13.3 °C 9.5 °C 1026.6 hPa SSE 7.7 km/h 13 km/h 78 % 0 mm
12:40 13.4 °C 9.7 °C 1026.6 hPa SSE 8.4 km/h 11.3 km/h 78 % 0 mm
12:45 13.4 °C 9.2 °C 1026.6 hPa SSE 9.2 km/h 12.9 km/h 76 % 0 mm
12:50 13.3 °C 9.2 °C 1026.6 hPa SSE 6.1 km/h 7.4 km/h 76 % 0 mm
12:55 13.5 °C 9.7 °C 1026.6 hPa SSE 9.2 km/h 12.9 km/h 78 % 0 mm
13:00 13.6 °C 9.8 °C 1026.3 hPa SSE 9.2 km/h 13 km/h 78 % 0 mm
13:05 13.6 °C 9.8 °C 1026.3 hPa SSE 11.7 km/h 16.7 km/h 78 % 0 mm
13:10 13.7 °C 9.8 °C 1026.3 hPa SSE 10.5 km/h 13 km/h 77 % 0 mm
13:15 13.7 °C 9.6 °C 1026.3 hPa SSE 10.9 km/h 14.8 km/h 76 % 0 mm
13:20 13.7 °C 9.5 °C 1026.3 hPa South 9.7 km/h 13 km/h 76 % 0 mm
13:25 13.6 °C 9.3 °C 1026 hPa South 9.5 km/h 13 km/h 75 % 0 mm
13:30 13.8 °C 9.4 °C 1026 hPa SSW 11.6 km/h 18.5 km/h 75 % 0 mm
13:35 13.6 °C 9.3 °C 1026 hPa SSW 7.7 km/h 9.3 km/h 75 % 0 mm
13:40 13.7 °C 9.3 °C 1026 hPa SSW 9.8 km/h 14.8 km/h 75 % 0 mm
13:45 13.8 °C 9.4 °C 1025.6 hPa SSW 1.1 km/h 3.7 km/h 75 % 0 mm
13:50 13.9 °C 9.4 °C 1025.6 hPa SSW 11.7 km/h 14.8 km/h 74 % 0 mm
13:55 13.9 °C 9.3 °C 1025.6 hPa SSW 5.8 km/h 7.4 km/h 74 % 0 mm
14:00 13.9 °C 9.2 °C 1025.6 hPa SSW 5.5 km/h 11.1 km/h 73 % 0 mm
14:05 14.1 °C 9.6 °C 1025.6 hPa North 7.4 km/h 9.7 km/h 74 % 0 mm
14:10 14.3 °C 9.5 °C 1025.6 hPa North 8 km/h 11.1 km/h 73 % 0 mm
14:15 14.2 °C 8.8 °C 1025.6 hPa SSW 6 km/h 11.1 km/h 70 % 0 mm
14:20 14.4 °C 9.2 °C 1025.3 hPa SSW 6 km/h 9.3 km/h 71 % 0 mm
14:25 14.6 °C 9.2 °C 1025.3 hPa South 7.7 km/h 9.3 km/h 70 % 0 mm
14:30 14.6 °C 9.2 °C 1025.3 hPa South 9.5 km/h 13 km/h 70 % 0 mm
14:35 14.4 °C 9.2 °C 1025.3 hPa North 11.4 km/h 14.8 km/h 71 % 0 mm
14:40 14.4 °C 9.2 °C 1025.3 hPa South 8.5 km/h 14.8 km/h 71 % 0 mm
14:45 14.4 °C 9.2 °C 1025.3 hPa South 7.9 km/h 9.7 km/h 71 % 0 mm
14:50 14.4 °C 9.1 °C 1025.3 hPa South 10 km/h 11.3 km/h 70 % 0 mm
14:55 14.3 °C 8.9 °C 1025.3 hPa SSW 9.3 km/h 16.7 km/h 70 % 0 mm
15:00 14.3 °C 8.7 °C 1025.3 hPa South 8.2 km/h 11.1 km/h 69 % 0 mm
15:05 14.3 °C 8.7 °C 1025.3 hPa North 8.2 km/h 14.8 km/h 69 % 0 mm
15:10 14.2 °C 8.8 °C 1025.3 hPa SSW 12.2 km/h 16.7 km/h 70 % 0 mm
15:15 14.2 °C 9 °C 1025.3 hPa SSW 8.7 km/h 13 km/h 71 % 0 mm
15:20 14.2 °C 8.6 °C 1025.3 hPa SSW 8.9 km/h 14.8 km/h 69 % 0 mm
15:25 14.2 °C 8.8 °C 1025.3 hPa SSW 5.8 km/h 9.3 km/h 70 % 0 mm
15:30 14.2 °C 8.8 °C 1025.3 hPa SSW 10.1 km/h 18.5 km/h 70 % 0 mm
15:35 14.1 °C 8.5 °C 1025.3 hPa SSW 13.4 km/h 14.8 km/h 69 % 0 mm
15:40 14.1 °C 8.5 °C 1025.3 hPa North 7.2 km/h 9.7 km/h 69 % 0 mm
15:45 14.2 °C 9.2 °C 1025.3 hPa South 11.4 km/h 18.5 km/h 72 % 0 mm
15:50 14.1 °C 9.1 °C 1025.3 hPa South 11.3 km/h 16.7 km/h 72 % 0 mm
15:55 13.9 °C 9.1 °C 1025.3 hPa South 9.5 km/h 11.1 km/h 73 % 0 mm
16:00 13.8 °C 9 °C 1025.3 hPa South 9.5 km/h 11.1 km/h 73 % 0 mm
16:05 13.8 °C 9 °C 1025.3 hPa South 8.4 km/h 13 km/h 73 % 0 mm
16:10 13.8 °C 9.1 °C 1025.6 hPa South 6.8 km/h 9.7 km/h 73 % 0 mm
16:15 13.8 °C 9 °C 1025.3 hPa North 8.7 km/h 16.7 km/h 73 % 0 mm
16:20 13.6 °C 8.8 °C 1025.3 hPa South 11.9 km/h 16.7 km/h 73 % 0 mm
16:25 13.4 °C 8.9 °C 1025.6 hPa South 9.3 km/h 14.8 km/h 74 % 0 mm
16:30 13.4 °C 8.8 °C 1025.6 hPa South 8.5 km/h 16.7 km/h 74 % 0 mm
16:35 13.3 °C 8.7 °C 1025.6 hPa South 4.8 km/h 8 km/h 74 % 0 mm
16:40 13.2 °C 8.8 °C 1025.6 hPa South 10.8 km/h 16.7 km/h 75 % 0 mm
16:45 13 °C 8.7 °C 1025.6 hPa South 15 km/h 18.5 km/h 75 % 0 mm
16:50 12.9 °C 8.6 °C 1025.6 hPa South 10 km/h 14.8 km/h 75 % 0 mm
16:55 12.9 °C 8.6 °C 1025.6 hPa South 8.7 km/h 11.3 km/h 75 % 0 mm
17:00 12.8 °C 8.5 °C 1025.6 hPa South 8 km/h 16.1 km/h 75 % 0 mm
17:05 12.7 °C 8.4 °C 1026 hPa South 9.7 km/h 13 km/h 75 % 0 mm
17:10 12.6 °C 8.5 °C 1026 hPa North 5 km/h 7.4 km/h 76 % 0 mm
17:15 12.5 °C 8.4 °C 1026 hPa South 4.3 km/h 7.4 km/h 76 % 0 mm
17:20 12.3 °C 8.2 °C 1026 hPa North 5 km/h 5.6 km/h 76 % 0 mm
17:25 12.1 °C 8.2 °C 1026 hPa South 3.9 km/h 5.6 km/h 77 % 0 mm
17:30 11.9 °C 8 °C 1026 hPa South 5.3 km/h 9.3 km/h 77 % 0 mm
17:35 11.7 °C 8 °C 1026 hPa South 3.1 km/h 5.6 km/h 78 % 0 mm
17:40 11.6 °C 7.8 °C 1026 hPa South 0.5 km/h 3.2 km/h 78 % 0 mm
17:45 11.4 °C 7.9 °C 1026 hPa North 4.2 km/h 9.3 km/h 79 % 0 mm
17:50 11.3 °C 7.8 °C 1026 hPa South 2.6 km/h 5.6 km/h 79 % 0 mm
17:55 11.2 °C 7.8 °C 1026 hPa SSW 3.7 km/h 5.6 km/h 80 % 0 mm
18:00 10.9 °C 7.6 °C 1026 hPa South 4.2 km/h 7.4 km/h 80 % 0 mm
18:05 10.8 °C 7.7 °C 1026 hPa South 4 km/h 5.6 km/h 81 % 0 mm
18:10 10.7 °C 7.7 °C 1026 hPa South 4.3 km/h 5.6 km/h 82 % 0 mm
18:15 10.6 °C 7.6 °C 1026 hPa South 6.3 km/h 8 km/h 82 % 0 mm
18:20 10.4 °C 7.7 °C 1026.3 hPa South 5 km/h 9.7 km/h 83 % 0 mm
18:26 10.4 °C 7.7 °C 1026 hPa South 5.6 km/h 11.1 km/h 83 % 0 mm
18:31 10.4 °C 7.6 °C 1026 hPa South 6.3 km/h 11.1 km/h 83 % 0 mm
18:36 10.4 °C 7.6 °C 1026 hPa South 5.8 km/h 9.3 km/h 83 % 0 mm
18:41 10.4 °C 7.4 °C 1026.3 hPa South 6 km/h 7.4 km/h 82 % 0 mm
18:46 10.3 °C 7.4 °C 1026 hPa South 4.5 km/h 7.4 km/h 82 % 0 mm
18:51 10.3 °C 7.5 °C 1026 hPa South 4.7 km/h 7.4 km/h 83 % 0 mm
18:56 10.2 °C 7.4 °C 1026 hPa South 5.1 km/h 5.6 km/h 83 % 0 mm
19:01 10 °C 7.2 °C 1026 hPa South 2.7 km/h 5.6 km/h 83 % 0 mm
19:06 9.9 °C 7.1 °C 1026.3 hPa South 5 km/h 11.1 km/h 83 % 0 mm
19:11 9.9 °C 7.3 °C 1026.3 hPa North 2.6 km/h 7.4 km/h 84 % 0 mm
19:16 9.8 °C 7.1 °C 1026.3 hPa South 4.5 km/h 9.7 km/h 83 % 0 mm
19:21 9.8 °C 7 °C 1026.3 hPa South 2.9 km/h 5.6 km/h 83 % 0 mm
19:26 9.8 °C 7 °C 1026.3 hPa South 5.5 km/h 5.6 km/h 83 % 0 mm
19:31 9.7 °C 7 °C 1026.3 hPa South 5.8 km/h 9.3 km/h 83 % 0 mm
19:36 9.7 °C 6.9 °C 1026.3 hPa South 6.1 km/h 7.4 km/h 83 % 0 mm
19:41 9.7 °C 7.1 °C 1026.3 hPa South 4.3 km/h 7.4 km/h 84 % 0 mm
19:46 9.6 °C 7.1 °C 1026.3 hPa South 5.5 km/h 9.3 km/h 84 % 0 mm
19:51 9.6 °C 7.1 °C 1026.3 hPa South 4.5 km/h 5.6 km/h 84 % 0 mm
19:56 9.6 °C 7.1 °C 1026.3 hPa North 7.6 km/h 9.3 km/h 84 % 0 mm
20:01 9.6 °C 7.1 °C 1026.3 hPa South 4.2 km/h 5.6 km/h 84 % 0 mm
20:06 9.5 °C 6.9 °C 1026.3 hPa South 4.3 km/h 5.6 km/h 84 % 0 mm
20:11 9.4 °C 7.1 °C 1026.6 hPa South 2.1 km/h 5.6 km/h 85 % 0 mm
20:16 9.4 °C 7 °C 1026.6 hPa South 6.1 km/h 7.4 km/h 85 % 0 mm
20:21 9.4 °C 7.2 °C 1026.6 hPa South 5.1 km/h 11.1 km/h 86 % 0 mm
20:26 9.4 °C 7.2 °C 1026.6 hPa SSW 5.1 km/h 8 km/h 86 % 0 mm
20:31 9.3 °C 7.1 °C 1026.6 hPa South 1.9 km/h 5.6 km/h 86 % 0 mm
20:36 9.2 °C 6.9 °C 1026.6 hPa South 3.1 km/h 5.6 km/h 86 % 0 mm
20:41 9.1 °C 7 °C 1026.6 hPa South 4.2 km/h 5.6 km/h 87 % 0 mm
20:46 8.9 °C 6.9 °C 1026.6 hPa South 6.6 km/h 7.4 km/h 87 % 0 mm
20:51 8.9 °C 7 °C 1026.6 hPa South 3.9 km/h 5.6 km/h 88 % 0 mm
20:56 8.9 °C 7 °C 1026.6 hPa South 6.6 km/h 8 km/h 88 % 0 mm
21:01 8.9 °C 7.2 °C 1026.6 hPa South 3.1 km/h 5.6 km/h 89 % 0 mm
21:06 8.9 °C 7.1 °C 1026.6 hPa South 5.3 km/h 8 km/h 88 % 0 mm
21:11 9 °C 7.1 °C 1026.6 hPa North 3.5 km/h 9.3 km/h 88 % 0 mm
21:16 8.9 °C 7.1 °C 1026.6 hPa South 4.5 km/h 5.6 km/h 88 % 0 mm
21:21 8.9 °C 7.7 °C 1026.6 hPa South 5.8 km/h 9.3 km/h 92 % 0 mm
21:26 8.9 °C 7.1 °C 1026.6 hPa South 6.1 km/h 9.7 km/h 88 % 0 mm
21:31 8.9 °C 7.1 °C 1026.6 hPa South 3.1 km/h 5.6 km/h 88 % 0 mm
21:36 8.9 °C 7 °C 1026.6 hPa North 2.9 km/h 6.4 km/h 88 % 0 mm
21:41 8.8 °C 6.9 °C 1026.6 hPa South 1 km/h 1.9 km/h 88 % 0 mm
21:46 8.6 °C 6.7 °C 1026.6 hPa North 2.6 km/h 3.7 km/h 88 % 0 mm
21:51 8.4 °C 6.6 °C 1026.6 hPa SSW 0.8 km/h 3.7 km/h 88 % 0 mm
21:56 8.3 °C 6.4 °C 1026.6 hPa South 2.1 km/h 3.7 km/h 88 % 0 mm
22:01 8.1 °C 6.4 °C 1026.6 hPa North 3.5 km/h 5.6 km/h 89 % 0 mm
22:06 7.9 °C 6.2 °C 1026.3 hPa Calm     89 % 0 mm
22:11 7.8 °C 6.1 °C 1026.6 hPa South 0.8 km/h 3.7 km/h 89 % 0 mm
22:16 7.7 °C 5.9 °C 1026.6 hPa South 0.2 km/h 1.9 km/h 89 % 0 mm
22:21 7.5 °C 5.8 °C 1026.6 hPa North 3.4 km/h 5.6 km/h 89 % 0 mm
22:26 7.4 °C 5.9 °C 1026.6 hPa South 3.1 km/h 5.6 km/h 90 % 0 mm
22:31 7.4 °C 5.9 °C 1026.6 hPa South 3.5 km/h 5.6 km/h 90 % 0 mm
22:36 7.4 °C 5.9 °C 1026.3 hPa SSW 3.2 km/h 5.6 km/h 90 % 0 mm
22:41 7.4 °C 6 °C 1026.3 hPa South 0.6 km/h 1.9 km/h 91 % 0 mm
22:46 7.3 °C 5.9 °C 1026.3 hPa South 1.6 km/h 3.7 km/h 91 % 0 mm
22:51 7.2 °C 5.8 °C 1026.3 hPa South 0.2 km/h 1.6 km/h 91 % 0 mm
22:56 7.2 °C 5.8 °C 1026.3 hPa South 2.7 km/h 5.6 km/h 91 % 0 mm
23:01 7.2 °C 6 °C 1026.3 hPa South 0.3 km/h 5.6 km/h 92 % 0 mm
23:06 7.3 °C 6.1 °C 1026.3 hPa South 1.9 km/h 5.6 km/h 92 % 0 mm
23:11 7.6 °C 6.5 °C 1026.3 hPa South 0.3 km/h 1.9 km/h 93 % 0 mm
23:16 7.8 °C 6.7 °C 1026.3 hPa South 2.4 km/h 5.6 km/h 93 % 0 mm
23:21 8 °C 6.9 °C 1026.3 hPa Calm   1.9 km/h 93 % 0 mm
23:26 8.1 °C 7.1 °C 1026.3 hPa South 3.2 km/h 5.6 km/h 93 % 0 mm
23:31 8.2 °C 7.2 °C 1026.3 hPa South 0.8 km/h 3.7 km/h 93 % 0 mm
23:36 8.3 °C 7.2 °C 1026.3 hPa South 1.9 km/h 6.4 km/h 93 % 0 mm
23:41 8.4 °C 7.3 °C 1026.3 hPa South 3.7 km/h 5.6 km/h 93 % 0 mm
23:46 8.4 °C 7.3 °C 1026.3 hPa South 3.4 km/h 5.6 km/h 93 % 0 mm
23:51 8.4 °C 7.4 °C 1026 hPa South 1.6 km/h 3.7 km/h 93 % 0 mm
23:56 8.5 °C 7.4 °C 1026 hPa South 2.1 km/h 5.6 km/h 93 % 0 mm
Ararat Weather
Compliments of Weather Underground - 2.5 mb
Click here to send mail.


ABOUT

Live weather data from Ararat, Victoria, Australia, 3377
Data uploaded from Cumulus every 5 minutes to Weather Underground.
This site then downloads the raw data for formatting and display.
Metric and imperial data can be displayed. Graphs and historical data available.
Includes Sun and Moon times and rain image live from BOM.

Check out Ararat Weather on Facebook, Twitter and Google +

Help support ongoing costs by checking out the ads





Follow @AraratWeather